createdAt,value
2018-06-19T00:00:53.693Z,17.80
2018-06-19T00:05:50.407Z,17.70
2018-06-19T00:10:47.212Z,17.70
2018-06-19T00:15:43.948Z,17.70
2018-06-19T00:20:40.806Z,17.90
2018-06-19T00:25:37.637Z,17.70
2018-06-19T00:30:34.436Z,17.60
2018-06-19T00:35:31.154Z,17.70
2018-06-19T00:40:27.943Z,17.70
2018-06-19T00:45:24.732Z,17.40
2018-06-19T00:50:21.482Z,17.40
2018-06-19T00:55:18.190Z,17.30
2018-06-19T01:00:14.966Z,17.20
2018-06-19T01:05:11.598Z,17.10
2018-06-19T01:10:08.365Z,17.10
2018-06-19T01:15:05.217Z,17.10
2018-06-19T01:20:02.221Z,17.00
2018-06-19T01:24:58.881Z,17.00
2018-06-19T01:29:55.655Z,16.90
2018-06-19T01:34:52.383Z,16.90
2018-06-19T01:39:49.103Z,16.80
2018-06-19T01:44:45.781Z,16.70
2018-06-19T01:49:42.541Z,16.70
2018-06-19T01:54:39.254Z,16.70
2018-06-19T01:59:36.007Z,16.70
2018-06-19T02:04:32.701Z,16.70
2018-06-19T02:09:29.434Z,16.70
2018-06-19T02:14:26.272Z,16.70
2018-06-19T02:19:23.029Z,16.70
2018-06-19T02:24:19.765Z,16.80
2018-06-19T02:29:16.498Z,16.80
2018-06-19T02:34:13.134Z,16.90
2018-06-19T02:39:12.747Z,17.00
2018-06-19T02:44:09.810Z,17.20
2018-06-19T02:49:06.506Z,17.10
2018-06-19T02:54:03.401Z,17.20
2018-06-19T02:59:00.229Z,17.10
2018-06-19T03:03:57.355Z,17.00
2018-06-19T03:08:54.131Z,17.00
2018-06-19T03:13:50.973Z,16.90
2018-06-19T03:18:47.710Z,16.80
2018-06-19T03:23:44.523Z,16.80
2018-06-19T03:28:41.182Z,16.80
2018-06-19T03:33:37.977Z,16.70
2018-06-19T03:38:34.778Z,16.70
2018-06-19T03:43:31.503Z,16.70
2018-06-19T03:48:28.177Z,16.60
2018-06-19T03:53:24.903Z,16.50
2018-06-19T03:58:21.709Z,16.50
2018-06-19T04:03:18.884Z,16.70
2018-06-19T04:08:15.601Z,16.80
2018-06-19T04:13:12.312Z,16.70
2018-06-19T04:18:09.282Z,16.80
2018-06-19T04:23:06.231Z,16.80
2018-06-19T04:28:02.891Z,17.00
2018-06-19T04:37:55.740Z,17.60
2018-06-19T04:42:52.579Z,18.20
2018-06-19T04:47:49.280Z,19.60
2018-06-19T04:52:46.012Z,21.40
2018-06-19T04:57:42.818Z,22.60
2018-06-19T05:02:40.004Z,22.60
2018-06-19T05:12:32.708Z,20.70
2018-06-19T05:17:29.447Z,19.80
2018-06-19T05:22:26.210Z,19.80
2018-06-19T05:27:24.808Z,19.60
2018-06-19T05:32:21.768Z,19.60
2018-06-19T05:37:18.452Z,20.10
2018-06-19T05:42:15.149Z,21.10
2018-06-19T05:47:14.190Z,21.80
2018-06-19T05:52:10.895Z,22.00
2018-06-19T05:57:07.649Z,22.10
2018-06-19T06:02:04.525Z,22.10
2018-06-19T06:07:01.159Z,22.10
2018-06-19T06:11:57.832Z,22.10
2018-06-19T06:16:54.469Z,22.40
2018-06-19T06:21:51.415Z,22.40
2018-06-19T06:26:48.366Z,22.50
2018-06-19T06:31:45.106Z,22.80
2018-06-19T06:36:41.843Z,22.80
2018-06-19T06:41:45.163Z,22.70
2018-06-19T06:46:43.689Z,22.90
2018-06-19T06:51:40.249Z,23.10
2018-06-19T06:56:44.356Z,23.50
2018-06-19T07:01:43.937Z,24.10
2018-06-19T07:06:40.508Z,25.00
2018-06-19T07:11:37.479Z,25.50
2018-06-19T07:16:40.430Z,25.60
2018-06-19T07:21:47.187Z,25.60
2018-06-19T07:26:43.882Z,25.50
2018-06-19T07:31:40.262Z,25.50
2018-06-19T07:36:37.969Z,24.90
2018-06-19T07:41:34.772Z,24.30
2018-06-19T07:46:30.562Z,24.30
2018-06-19T07:51:26.373Z,24.70
2018-06-19T07:56:22.499Z,25.30
2018-06-19T08:06:19.748Z,26.00
2018-06-19T08:11:16.246Z,25.60
2018-06-19T08:16:14.936Z,25.50
2018-06-19T08:21:11.864Z,25.00
2018-06-19T08:26:18.885Z,24.50
2018-06-19T08:31:14.569Z,24.30
2018-06-19T08:36:13.938Z,25.30
2018-06-19T08:46:15.763Z,26.10
2018-06-19T09:01:05.888Z,26.80
2018-06-19T09:06:01.727Z,26.90
2018-06-19T09:10:57.504Z,27.10
2018-06-19T09:15:53.263Z,26.90
2018-06-19T09:20:48.782Z,27.10
2018-06-19T09:25:44.540Z,27.20
2018-06-19T09:30:52.458Z,27.40
2018-06-19T09:35:47.888Z,27.70
2018-06-19T09:40:43.360Z,27.30
2018-06-19T09:45:38.761Z,27.30
2018-06-19T09:50:34.204Z,26.80
2018-06-19T09:55:30.747Z,26.70
2018-06-19T10:00:34.586Z,27.30
2018-06-19T10:05:30.973Z,26.90
2018-06-19T10:10:26.282Z,26.90
2018-06-19T10:15:21.701Z,27.10
2018-06-19T10:20:16.935Z,27.60
2018-06-19T10:25:12.234Z,27.60
2018-06-19T10:30:07.984Z,27.10
2018-06-19T10:35:03.488Z,27.20
2018-06-19T10:39:58.817Z,27.60
2018-06-19T10:44:55.018Z,25.90
2018-06-19T10:49:50.070Z,25.90
2018-06-19T10:54:45.822Z,25.60
2018-06-19T10:59:40.959Z,26.00
2018-06-19T11:04:36.031Z,26.10
2018-06-19T11:09:31.265Z,27.10
2018-06-19T11:14:30.604Z,26.50
2018-06-19T11:19:26.244Z,26.70
2018-06-19T11:24:21.682Z,26.00
2018-06-19T11:29:17.159Z,26.70
2018-06-19T11:34:12.722Z,27.10
2018-06-19T11:39:14.407Z,27.20
2018-06-19T11:44:08.880Z,27.30
2018-06-19T11:49:03.482Z,26.90
2018-06-19T11:53:58.900Z,27.50
2018-06-19T11:58:54.186Z,27.80
2018-06-19T12:03:49.793Z,28.10
2018-06-19T12:08:48.910Z,28.10
2018-06-19T12:13:43.888Z,27.80
2018-06-19T12:18:41.265Z,27.70
2018-06-19T12:23:39.056Z,27.50
2018-06-19T12:33:37.052Z,26.40
2018-06-19T12:38:33.566Z,26.30
2018-06-19T12:43:30.061Z,26.70
2018-06-19T12:48:30.157Z,26.70
2018-06-19T12:53:41.801Z,26.70
2018-06-19T12:58:36.217Z,27.20
2018-06-19T13:03:47.836Z,27.50
2018-06-19T13:08:43.945Z,27.30
2018-06-19T13:19:01.459Z,26.80
2018-06-19T13:24:07.176Z,26.70
2018-06-19T13:29:54.911Z,26.10
2018-06-19T13:35:01.023Z,26.80
2018-06-19T13:41:23.837Z,26.90
2018-06-19T13:46:27.870Z,27.10
2018-06-19T13:51:31.393Z,26.60
2018-06-19T13:57:49.464Z,26.60
2018-06-19T14:02:56.591Z,26.90
2018-06-19T14:08:19.813Z,26.60
2018-06-19T14:13:26.232Z,26.50
2018-06-19T14:18:34.509Z,26.50
2018-06-19T14:23:40.646Z,26.60
2018-06-19T14:33:48.557Z,26.30
2018-06-19T14:38:53.701Z,26.50
2018-06-19T14:43:59.924Z,26.60
2018-06-19T14:49:07.875Z,26.50
2018-06-19T14:54:13.480Z,26.70
2018-06-19T14:59:20.722Z,26.50
2018-06-19T15:04:24.748Z,26.40
2018-06-19T15:09:19.530Z,26.50
2018-06-19T15:14:13.981Z,26.10
2018-06-19T15:19:08.509Z,26.10
2018-06-19T15:24:07.024Z,26.10
2018-06-19T15:29:06.778Z,26.40
2018-06-19T15:34:01.906Z,26.50
2018-06-19T15:38:56.320Z,26.80
2018-06-19T15:43:50.744Z,27.00
2018-06-19T15:48:45.247Z,27.00
2018-06-19T15:53:39.810Z,26.80
2018-06-19T15:58:34.623Z,26.60
2018-06-19T16:03:29.066Z,26.60
2018-06-19T16:08:23.765Z,26.60
2018-06-19T16:13:18.484Z,26.80
2018-06-19T16:18:13.804Z,26.90
2018-06-19T16:23:08.436Z,26.50
2018-06-19T16:28:03.009Z,26.60
2018-06-19T16:32:57.689Z,27.00
2018-06-19T16:37:52.248Z,27.10
2018-06-19T16:42:46.701Z,27.10
2018-06-19T16:47:41.242Z,27.20
2018-06-19T16:52:35.762Z,26.90
2018-06-19T16:57:31.540Z,26.90
2018-06-19T17:02:25.984Z,27.10
2018-06-19T17:07:20.447Z,27.10
2018-06-19T17:12:14.897Z,26.60
2018-06-19T17:17:09.412Z,26.70
2018-06-19T17:22:04.985Z,27.10
2018-06-19T17:26:59.394Z,27.10
2018-06-19T17:31:53.964Z,27.10
2018-06-19T17:36:48.437Z,26.90
2018-06-19T17:41:42.893Z,26.80
2018-06-19T17:46:37.356Z,26.80
2018-06-19T17:51:31.780Z,26.80
2018-06-19T17:56:26.307Z,26.50
2018-06-19T18:01:20.757Z,26.50
2018-06-19T18:06:15.169Z,26.30
2018-06-19T18:11:09.628Z,26.40
2018-06-19T18:16:04.062Z,26.60
2018-06-19T18:20:58.519Z,26.50
2018-06-19T18:25:52.941Z,26.60
2018-06-19T18:30:47.689Z,26.50
2018-06-19T18:35:43.204Z,26.40
2018-06-19T18:45:32.223Z,26.40
2018-06-19T18:50:26.665Z,26.30
2018-06-19T18:55:21.061Z,26.50
2018-06-19T19:00:15.537Z,27.60
2018-06-19T19:05:10.077Z,28.10
2018-06-19T19:10:10.521Z,26.80
2018-06-19T19:15:10.404Z,25.80
2018-06-19T19:20:04.896Z,25.50
2018-06-19T19:24:59.436Z,25.30
2018-06-19T19:29:53.940Z,24.60
2018-06-19T19:34:48.459Z,24.00
2018-06-19T19:39:42.928Z,23.70
2018-06-19T19:49:31.508Z,23.20
2018-06-19T19:54:26.080Z,23.10
2018-06-19T19:59:20.574Z,23.00
2018-06-19T20:04:15.462Z,22.90
2018-06-19T20:09:10.453Z,22.90
2018-06-19T20:14:05.138Z,22.80
2018-06-19T20:18:59.567Z,22.70
2018-06-19T20:23:54.045Z,22.60
2018-06-19T20:28:48.454Z,22.40
2018-06-19T20:33:43.813Z,22.20
2018-06-19T20:38:38.280Z,22.10
2018-06-19T20:43:32.805Z,22.00
2018-06-19T20:48:27.290Z,21.90
2018-06-19T20:53:21.681Z,21.80
2018-06-19T20:58:16.376Z,21.60
2018-06-19T21:03:10.962Z,21.50
2018-06-19T21:13:00.412Z,21.30
2018-06-19T21:17:54.856Z,21.30
2018-06-19T21:22:49.376Z,21.20
2018-06-19T21:27:43.781Z,21.20
2018-06-19T21:32:38.218Z,21.00
2018-06-19T21:37:32.621Z,21.00
2018-06-19T21:42:27.068Z,21.00
2018-06-19T21:47:21.728Z,20.80
2018-06-19T21:52:16.312Z,20.70
2018-06-19T21:57:10.881Z,20.60
2018-06-19T22:02:05.578Z,20.60
2018-06-19T22:07:00.050Z,20.50
2018-06-19T22:11:54.527Z,20.60
2018-06-19T22:16:48.942Z,20.50
2018-06-19T22:21:43.379Z,20.40
2018-06-19T22:26:37.810Z,20.40
2018-06-19T22:31:32.231Z,20.40
2018-06-19T22:36:26.937Z,20.30
2018-06-19T22:41:21.725Z,20.10
2018-06-19T22:46:16.167Z,20.10
2018-06-19T22:51:10.643Z,20.00
2018-06-19T22:56:05.157Z,19.90
2018-06-19T23:00:59.584Z,19.90
2018-06-19T23:05:54.005Z,19.80
2018-06-19T23:10:48.441Z,19.80
2018-06-19T23:15:42.829Z,19.80
2018-06-19T23:20:37.257Z,19.70
2018-06-19T23:25:31.661Z,19.60
2018-06-19T23:30:26.069Z,19.50
2018-06-19T23:35:20.488Z,19.50
2018-06-19T23:40:14.943Z,19.60
2018-06-19T23:45:09.359Z,19.50
2018-06-19T23:54:58.090Z,19.20
2018-06-19T23:59:52.572Z,19.20
